sensor_id;sensor_type;location;lat;lon;timestamp;P1;durP1;ratioP1;P2;durP2;ratioP2
81934;SDS011;71405;47.674;-2.050;2023-07-30T00:01:43;8.40;;;3.03;;
81934;SDS011;71405;47.674;-2.050;2023-07-30T00:04:09;7.25;;;3.20;;
81934;SDS011;71405;47.674;-2.050;2023-07-30T00:06:34;8.88;;;3.10;;
81934;SDS011;71405;47.674;-2.050;2023-07-30T00:09:00;8.05;;;2.97;;
81934;SDS011;71405;47.674;-2.050;2023-07-30T00:11:25;8.88;;;2.90;;
81934;SDS011;71405;47.674;-2.050;2023-07-30T00:13:51;8.05;;;3.28;;
81934;SDS011;71405;47.674;-2.050;2023-07-30T00:16:17;7.85;;;3.00;;
81934;SDS011;71405;47.674;-2.050;2023-07-30T00:18:42;9.77;;;2.83;;
81934;SDS011;71405;47.674;-2.050;2023-07-30T00:21:08;7.18;;;2.67;;
81934;SDS011;71405;47.674;-2.050;2023-07-30T00:23:34;8.65;;;3.22;;
81934;SDS011;71405;47.674;-2.050;2023-07-30T00:25:59;6.32;;;2.60;;
81934;SDS011;71405;47.674;-2.050;2023-07-30T00:28:25;9.40;;;2.97;;
81934;SDS011;71405;47.674;-2.050;2023-07-30T00:30:50;6.70;;;2.63;;
81934;SDS011;71405;47.674;-2.050;2023-07-30T00:33:16;7.72;;;2.88;;
81934;SDS011;71405;47.674;-2.050;2023-07-30T00:35:42;6.95;;;2.70;;
81934;SDS011;71405;47.674;-2.050;2023-07-30T00:38:07;7.18;;;3.20;;
81934;SDS011;71405;47.674;-2.050;2023-07-30T00:40:38;5.63;;;2.50;;
81934;SDS011;71405;47.674;-2.050;2023-07-30T00:43:05;5.90;;;2.53;;
81934;SDS011;71405;47.674;-2.050;2023-07-30T00:45:31;7.85;;;3.53;;
81934;SDS011;71405;47.674;-2.050;2023-07-30T00:47:56;7.03;;;2.70;;
81934;SDS011;71405;47.674;-2.050;2023-07-30T00:50:22;8.05;;;2.63;;
81934;SDS011;71405;47.674;-2.050;2023-07-30T00:52:48;7.47;;;2.72;;
81934;SDS011;71405;47.674;-2.050;2023-07-30T00:55:14;8.00;;;2.58;;
81934;SDS011;71405;47.674;-2.050;2023-07-30T00:57:40;8.70;;;2.92;;
81934;SDS011;71405;47.674;-2.050;2023-07-30T01:00:07;6.72;;;2.45;;
81934;SDS011;71405;47.674;-2.050;2023-07-30T01:02:37;6.90;;;2.50;;
81934;SDS011;71405;47.674;-2.050;2023-07-30T01:05:03;5.80;;;2.40;;
81934;SDS011;71405;47.674;-2.050;2023-07-30T01:07:29;7.00;;;2.78;;
81934;SDS011;71405;47.674;-2.050;2023-07-30T01:09:58;5.20;;;2.22;;
81934;SDS011;71405;47.674;-2.050;2023-07-30T01:12:25;6.78;;;2.35;;
81934;SDS011;71405;47.674;-2.050;2023-07-30T01:14:52;6.07;;;2.30;;
81934;SDS011;71405;47.674;-2.050;2023-07-30T01:17:20;6.25;;;2.40;;
81934;SDS011;71405;47.674;-2.050;2023-07-30T01:19:47;6.85;;;2.60;;
81934;SDS011;71405;47.674;-2.050;2023-07-30T01:22:14;5.97;;;2.17;;
81934;SDS011;71405;47.674;-2.050;2023-07-30T01:24:40;6.75;;;2.65;;
81934;SDS011;71405;47.674;-2.050;2023-07-30T01:27:11;9.05;;;2.55;;
81934;SDS011;71405;47.674;-2.050;2023-07-30T01:29:53;6.57;;;2.30;;
81934;SDS011;71405;47.674;-2.050;2023-07-30T01:32:27;6.80;;;2.08;;
81934;SDS011;71405;47.674;-2.050;2023-07-30T01:34:55;6.93;;;2.17;;
81934;SDS011;71405;47.674;-2.050;2023-07-30T01:37:22;6.40;;;2.50;;
81934;SDS011;71405;47.674;-2.050;2023-07-30T01:39:49;4.30;;;1.92;;
81934;SDS011;71405;47.674;-2.050;2023-07-30T01:42:15;4.75;;;1.90;;
81934;SDS011;71405;47.674;-2.050;2023-07-30T01:44:41;5.93;;;2.17;;
81934;SDS011;71405;47.674;-2.050;2023-07-30T01:47:07;4.55;;;1.88;;
81934;SDS011;71405;47.674;-2.050;2023-07-30T01:49:33;5.45;;;1.85;;
81934;SDS011;71405;47.674;-2.050;2023-07-30T01:51:59;5.88;;;1.92;;
81934;SDS011;71405;47.674;-2.050;2023-07-30T01:54:25;4.22;;;1.70;;
81934;SDS011;71405;47.674;-2.050;2023-07-30T01:56:51;6.70;;;2.30;;
81934;SDS011;71405;47.674;-2.050;2023-07-30T01:59:18;4.57;;;1.73;;
81934;SDS011;71405;47.674;-2.050;2023-07-30T02:01:43;3.78;;;1.55;;
81934;SDS011;71405;47.674;-2.050;2023-07-30T02:04:09;5.38;;;1.90;;
81934;SDS011;71405;47.674;-2.050;2023-07-30T02:06:35;4.35;;;1.80;;
81934;SDS011;71405;47.674;-2.050;2023-07-30T02:09:01;5.70;;;1.77;;
81934;SDS011;71405;47.674;-2.050;2023-07-30T02:11:27;3.50;;;1.33;;
81934;SDS011;71405;47.674;-2.050;2023-07-30T02:13:53;5.85;;;1.58;;
81934;SDS011;71405;47.674;-2.050;2023-07-30T02:16:19;4.20;;;1.67;;
81934;SDS011;71405;47.674;-2.050;2023-07-30T02:18:44;4.05;;;1.50;;
81934;SDS011;71405;47.674;-2.050;2023-07-30T02:21:10;3.80;;;1.50;;
81934;SDS011;71405;47.674;-2.050;2023-07-30T02:23:36;4.28;;;1.75;;
81934;SDS011;71405;47.674;-2.050;2023-07-30T02:26:01;3.63;;;1.63;;
81934;SDS011;71405;47.674;-2.050;2023-07-30T02:28:27;3.78;;;1.48;;
81934;SDS011;71405;47.674;-2.050;2023-07-30T02:30:53;3.05;;;1.40;;
81934;SDS011;71405;47.674;-2.050;2023-07-30T02:33:18;3.38;;;1.40;;
81934;SDS011;71405;47.674;-2.050;2023-07-30T02:35:44;3.78;;;1.58;;
81934;SDS011;71405;47.674;-2.050;2023-07-30T02:38:10;4.38;;;1.65;;
81934;SDS011;71405;47.674;-2.050;2023-07-30T02:40:35;3.17;;;1.38;;
81934;SDS011;71405;47.674;-2.050;2023-07-30T02:43:01;4.38;;;1.60;;
81934;SDS011;71405;47.674;-2.050;2023-07-30T02:45:27;3.45;;;1.27;;
81934;SDS011;71405;47.674;-2.050;2023-07-30T02:47:52;3.33;;;1.45;;
81934;SDS011;71405;47.674;-2.050;2023-07-30T02:50:18;3.88;;;1.40;;
81934;SDS011;71405;47.674;-2.050;2023-07-30T02:52:44;3.20;;;1.30;;
81934;SDS011;71405;47.674;-2.050;2023-07-30T02:55:09;3.92;;;1.38;;
81934;SDS011;71405;47.674;-2.050;2023-07-30T02:57:35;2.55;;;1.23;;
81934;SDS011;71405;47.674;-2.050;2023-07-30T03:00:01;2.25;;;1.15;;
81934;SDS011;71405;47.674;-2.050;2023-07-30T03:02:28;2.83;;;1.27;;
81934;SDS011;71405;47.674;-2.050;2023-07-30T03:04:54;2.90;;;1.38;;
81934;SDS011;71405;47.674;-2.050;2023-07-30T03:07:20;2.90;;;1.10;;
81934;SDS011;71405;47.674;-2.050;2023-07-30T03:09:45;3.28;;;1.33;;
81934;SDS011;71405;47.674;-2.050;2023-07-30T03:12:11;2.97;;;1.15;;
81934;SDS011;71405;47.674;-2.050;2023-07-30T03:14:37;2.40;;;1.02;;
81934;SDS011;71405;47.674;-2.050;2023-07-30T03:17:03;2.65;;;1.20;;
81934;SDS011;71405;47.674;-2.050;2023-07-30T03:19:30;4.00;;;1.33;;
81934;SDS011;71405;47.674;-2.050;2023-07-30T03:21:55;2.90;;;1.30;;
81934;SDS011;71405;47.674;-2.050;2023-07-30T03:24:21;2.03;;;1.10;;
81934;SDS011;71405;47.674;-2.050;2023-07-30T03:26:47;1.65;;;1.27;;
81934;SDS011;71405;47.674;-2.050;2023-07-30T03:29:12;2.95;;;1.10;;
81934;SDS011;71405;47.674;-2.050;2023-07-30T03:31:40;1.85;;;1.00;;
81934;SDS011;71405;47.674;-2.050;2023-07-30T03:34:05;1.58;;;0.95;;
81934;SDS011;71405;47.674;-2.050;2023-07-30T03:36:31;2.25;;;1.17;;
81934;SDS011;71405;47.674;-2.050;2023-07-30T03:38:57;1.48;;;0.93;;
81934;SDS011;71405;47.674;-2.050;2023-07-30T03:41:22;2.08;;;1.10;;
81934;SDS011;71405;47.674;-2.050;2023-07-30T03:43:48;3.28;;;1.30;;
81934;SDS011;71405;47.674;-2.050;2023-07-30T03:46:14;3.10;;;1.23;;
81934;SDS011;71405;47.674;-2.050;2023-07-30T03:48:39;2.55;;;1.00;;
81934;SDS011;71405;47.674;-2.050;2023-07-30T03:51:05;3.05;;;1.23;;
81934;SDS011;71405;47.674;-2.050;2023-07-30T03:53:32;1.60;;;0.93;;
81934;SDS011;71405;47.674;-2.050;2023-07-30T03:55:58;2.58;;;1.17;;
81934;SDS011;71405;47.674;-2.050;2023-07-30T03:58:23;2.22;;;1.15;;
81934;SDS011;71405;47.674;-2.050;2023-07-30T04:00:49;2.20;;;1.20;;
81934;SDS011;71405;47.674;-2.050;2023-07-30T04:03:15;1.80;;;1.00;;
81934;SDS011;71405;47.674;-2.050;2023-07-30T04:05:40;1.48;;;1.00;;
81934;SDS011;71405;47.674;-2.050;2023-07-30T04:08:06;1.92;;;1.00;;
81934;SDS011;71405;47.674;-2.050;2023-07-30T04:10:32;2.35;;;1.08;;
81934;SDS011;71405;47.674;-2.050;2023-07-30T04:12:57;2.38;;;1.10;;
81934;SDS011;71405;47.674;-2.050;2023-07-30T04:15:23;2.30;;;1.05;;
81934;SDS011;71405;47.674;-2.050;2023-07-30T04:17:49;3.28;;;1.30;;
81934;SDS011;71405;47.674;-2.050;2023-07-30T04:20:14;2.40;;;1.10;;
81934;SDS011;71405;47.674;-2.050;2023-07-30T04:22:40;3.50;;;1.25;;
81934;SDS011;71405;47.674;-2.050;2023-07-30T04:25:06;2.22;;;1.05;;
81934;SDS011;71405;47.674;-2.050;2023-07-30T04:27:33;1.65;;;0.80;;
81934;SDS011;71405;47.674;-2.050;2023-07-30T04:29:58;2.65;;;0.95;;
81934;SDS011;71405;47.674;-2.050;2023-07-30T04:32:24;2.47;;;1.10;;
81934;SDS011;71405;47.674;-2.050;2023-07-30T04:34:50;2.03;;;1.10;;
81934;SDS011;71405;47.674;-2.050;2023-07-30T04:37:15;3.40;;;1.20;;
81934;SDS011;71405;47.674;-2.050;2023-07-30T04:39:41;3.28;;;1.25;;
81934;SDS011;71405;47.674;-2.050;2023-07-30T04:42:07;1.52;;;1.02;;
81934;SDS011;71405;47.674;-2.050;2023-07-30T04:44:32;2.70;;;1.05;;
81934;SDS011;71405;47.674;-2.050;2023-07-30T04:46:58;2.22;;;0.90;;
81934;SDS011;71405;47.674;-2.050;2023-07-30T04:49:24;3.45;;;1.08;;
81934;SDS011;71405;47.674;-2.050;2023-07-30T04:51:49;2.22;;;1.10;;
81934;SDS011;71405;47.674;-2.050;2023-07-30T04:54:15;1.90;;;0.88;;
81934;SDS011;71405;47.674;-2.050;2023-07-30T04:56:41;2.35;;;1.15;;
81934;SDS011;71405;47.674;-2.050;2023-07-30T04:59:06;1.23;;;0.80;;
81934;SDS011;71405;47.674;-2.050;2023-07-30T05:01:32;3.08;;;1.23;;
81934;SDS011;71405;47.674;-2.050;2023-07-30T05:03:58;1.55;;;1.10;;
81934;SDS011;71405;47.674;-2.050;2023-07-30T05:06:23;1.08;;;0.88;;
81934;SDS011;71405;47.674;-2.050;2023-07-30T05:08:49;2.83;;;1.20;;
81934;SDS011;71405;47.674;-2.050;2023-07-30T05:11:15;2.13;;;1.05;;
81934;SDS011;71405;47.674;-2.050;2023-07-30T05:13:40;2.15;;;1.10;;
81934;SDS011;71405;47.674;-2.050;2023-07-30T05:16:06;1.73;;;0.80;;
81934;SDS011;71405;47.674;-2.050;2023-07-30T05:18:32;2.38;;;1.30;;
81934;SDS011;71405;47.674;-2.050;2023-07-30T05:20:57;2.53;;;1.02;;
81934;SDS011;71405;47.674;-2.050;2023-07-30T05:23:23;3.05;;;1.30;;
81934;SDS011;71405;47.674;-2.050;2023-07-30T05:25:49;1.58;;;0.80;;
81934;SDS011;71405;47.674;-2.050;2023-07-30T05:28:15;4.05;;;1.20;;
81934;SDS011;71405;47.674;-2.050;2023-07-30T05:30:40;2.30;;;0.90;;
81934;SDS011;71405;47.674;-2.050;2023-07-30T05:33:06;2.45;;;1.00;;
81934;SDS011;71405;47.674;-2.050;2023-07-30T05:35:32;2.38;;;1.00;;
81934;SDS011;71405;47.674;-2.050;2023-07-30T05:37:57;2.33;;;1.00;;
81934;SDS011;71405;47.674;-2.050;2023-07-30T05:40:23;2.42;;;1.10;;
81934;SDS011;71405;47.674;-2.050;2023-07-30T05:42:49;2.63;;;0.98;;
81934;SDS011;71405;47.674;-2.050;2023-07-30T05:45:14;2.00;;;1.00;;
81934;SDS011;71405;47.674;-2.050;2023-07-30T05:47:40;3.35;;;1.20;;
81934;SDS011;71405;47.674;-2.050;2023-07-30T05:50:06;4.45;;;1.45;;
81934;SDS011;71405;47.674;-2.050;2023-07-30T05:52:32;3.83;;;1.20;;
81934;SDS011;71405;47.674;-2.050;2023-07-30T05:54:58;3.30;;;1.15;;
81934;SDS011;71405;47.674;-2.050;2023-07-30T05:57:24;2.42;;;1.15;;
81934;SDS011;71405;47.674;-2.050;2023-07-30T05:59:50;2.83;;;1.10;;
81934;SDS011;71405;47.674;-2.050;2023-07-30T06:02:16;2.35;;;1.00;;
81934;SDS011;71405;47.674;-2.050;2023-07-30T06:04:42;2.10;;;1.08;;
81934;SDS011;71405;47.674;-2.050;2023-07-30T06:07:07;2.13;;;1.10;;
81934;SDS011;71405;47.674;-2.050;2023-07-30T06:09:33;3.83;;;1.40;;
81934;SDS011;71405;47.674;-2.050;2023-07-30T06:11:59;2.53;;;1.10;;
81934;SDS011;71405;47.674;-2.050;2023-07-30T06:14:25;2.92;;;1.20;;
81934;SDS011;71405;47.674;-2.050;2023-07-30T06:16:51;2.28;;;1.13;;
81934;SDS011;71405;47.674;-2.050;2023-07-30T06:19:17;1.88;;;0.98;;
81934;SDS011;71405;47.674;-2.050;2023-07-30T06:21:43;2.47;;;1.05;;
81934;SDS011;71405;47.674;-2.050;2023-07-30T06:24:09;3.33;;;1.20;;
81934;SDS011;71405;47.674;-2.050;2023-07-30T06:26:34;2.35;;;1.10;;
81934;SDS011;71405;47.674;-2.050;2023-07-30T06:29:00;1.85;;;1.00;;
81934;SDS011;71405;47.674;-2.050;2023-07-30T06:31:26;2.30;;;1.15;;
81934;SDS011;71405;47.674;-2.050;2023-07-30T06:33:52;1.90;;;1.00;;
81934;SDS011;71405;47.674;-2.050;2023-07-30T06:36:17;2.53;;;1.17;;
81934;SDS011;71405;47.674;-2.050;2023-07-30T06:38:43;15.77;;;14.18;;
81934;SDS011;71405;47.674;-2.050;2023-07-30T06:41:08;11.68;;;9.35;;
81934;SDS011;71405;47.674;-2.050;2023-07-30T06:43:34;10.15;;;6.10;;
81934;SDS011;71405;47.674;-2.050;2023-07-30T06:46:00;9.07;;;5.00;;
81934;SDS011;71405;47.674;-2.050;2023-07-30T06:48:26;9.85;;;4.20;;
81934;SDS011;71405;47.674;-2.050;2023-07-30T06:50:51;8.50;;;3.90;;
81934;SDS011;71405;47.674;-2.050;2023-07-30T06:53:17;9.35;;;3.42;;
81934;SDS011;71405;47.674;-2.050;2023-07-30T06:55:43;7.15;;;2.58;;
81934;SDS011;71405;47.674;-2.050;2023-07-30T06:58:09;7.88;;;2.80;;
81934;SDS011;71405;47.674;-2.050;2023-07-30T07:00:35;10.43;;;6.63;;
81934;SDS011;71405;47.674;-2.050;2023-07-30T07:03:01;23.75;;;21.55;;
81934;SDS011;71405;47.674;-2.050;2023-07-30T07:05:26;13.63;;;10.85;;
81934;SDS011;71405;47.674;-2.050;2023-07-30T07:07:52;12.05;;;7.20;;
81934;SDS011;71405;47.674;-2.050;2023-07-30T07:10:18;11.73;;;5.70;;
81934;SDS011;71405;47.674;-2.050;2023-07-30T07:12:43;9.90;;;4.80;;
81934;SDS011;71405;47.674;-2.050;2023-07-30T07:15:09;8.68;;;4.13;;
81934;SDS011;71405;47.674;-2.050;2023-07-30T07:17:35;8.82;;;4.00;;
81934;SDS011;71405;47.674;-2.050;2023-07-30T07:20:01;8.95;;;3.60;;
81934;SDS011;71405;47.674;-2.050;2023-07-30T07:22:28;9.02;;;3.15;;
81934;SDS011;71405;47.674;-2.050;2023-07-30T07:24:54;8.38;;;3.25;;
81934;SDS011;71405;47.674;-2.050;2023-07-30T07:27:20;8.38;;;3.42;;
81934;SDS011;71405;47.674;-2.050;2023-07-30T07:29:46;8.40;;;3.33;;
81934;SDS011;71405;47.674;-2.050;2023-07-30T07:32:11;6.93;;;3.20;;
81934;SDS011;71405;47.674;-2.050;2023-07-30T07:34:37;6.93;;;3.03;;
81934;SDS011;71405;47.674;-2.050;2023-07-30T07:37:03;8.25;;;3.30;;
81934;SDS011;71405;47.674;-2.050;2023-07-30T07:39:29;7.65;;;2.83;;
81934;SDS011;71405;47.674;-2.050;2023-07-30T07:41:55;9.85;;;3.40;;
81934;SDS011;71405;47.674;-2.050;2023-07-30T07:44:20;7.72;;;3.10;;
81934;SDS011;71405;47.674;-2.050;2023-07-30T07:46:47;8.18;;;3.00;;
81934;SDS011;71405;47.674;-2.050;2023-07-30T07:49:13;7.13;;;2.83;;
81934;SDS011;71405;47.674;-2.050;2023-07-30T07:51:38;7.55;;;2.95;;
81934;SDS011;71405;47.674;-2.050;2023-07-30T07:54:04;7.10;;;2.80;;
81934;SDS011;71405;47.674;-2.050;2023-07-30T07:56:30;9.50;;;3.28;;
81934;SDS011;71405;47.674;-2.050;2023-07-30T07:58:56;9.63;;;3.50;;
81934;SDS011;71405;47.674;-2.050;2023-07-30T08:01:22;7.93;;;3.05;;
81934;SDS011;71405;47.674;-2.050;2023-07-30T08:03:48;8.82;;;3.17;;
81934;SDS011;71405;47.674;-2.050;2023-07-30T08:06:14;29.13;;;26.52;;
81934;SDS011;71405;47.674;-2.050;2023-07-30T08:08:39;16.95;;;15.35;;
81934;SDS011;71405;47.674;-2.050;2023-07-30T08:11:08;13.20;;;10.13;;
81934;SDS011;71405;47.674;-2.050;2023-07-30T08:13:34;10.23;;;7.80;;
81934;SDS011;71405;47.674;-2.050;2023-07-30T08:16:01;10.23;;;7.68;;
81934;SDS011;71405;47.674;-2.050;2023-07-30T08:18:27;11.90;;;9.38;;
81934;SDS011;71405;47.674;-2.050;2023-07-30T08:20:53;11.35;;;8.68;;
81934;SDS011;71405;47.674;-2.050;2023-07-30T08:23:19;10.55;;;8.00;;
81934;SDS011;71405;47.674;-2.050;2023-07-30T08:25:44;11.23;;;8.85;;
81934;SDS011;71405;47.674;-2.050;2023-07-30T08:28:10;11.57;;;8.00;;
81934;SDS011;71405;47.674;-2.050;2023-07-30T08:30:36;10.50;;;8.05;;
81934;SDS011;71405;47.674;-2.050;2023-07-30T08:33:02;9.18;;;7.15;;
81934;SDS011;71405;47.674;-2.050;2023-07-30T08:35:28;10.93;;;7.43;;
81934;SDS011;71405;47.674;-2.050;2023-07-30T08:37:53;11.32;;;7.60;;
81934;SDS011;71405;47.674;-2.050;2023-07-30T08:40:22;10.23;;;7.05;;
81934;SDS011;71405;47.674;-2.050;2023-07-30T08:42:52;9.63;;;6.30;;
81934;SDS011;71405;47.674;-2.050;2023-07-30T08:45:18;10.75;;;5.90;;
81934;SDS011;71405;47.674;-2.050;2023-07-30T08:47:45;10.30;;;6.00;;
81934;SDS011;71405;47.674;-2.050;2023-07-30T08:50:11;9.13;;;5.20;;
81934;SDS011;71405;47.674;-2.050;2023-07-30T08:52:37;9.15;;;5.00;;
81934;SDS011;71405;47.674;-2.050;2023-07-30T08:55:04;8.32;;;5.05;;
81934;SDS011;71405;47.674;-2.050;2023-07-30T08:57:31;9.02;;;4.43;;
81934;SDS011;71405;47.674;-2.050;2023-07-30T09:00:00;9.05;;;4.50;;
81934;SDS011;71405;47.674;-2.050;2023-07-30T09:02:41;8.82;;;3.90;;
81934;SDS011;71405;47.674;-2.050;2023-07-30T09:05:11;8.32;;;4.20;;
81934;SDS011;71405;47.674;-2.050;2023-07-30T09:07:37;7.68;;;3.50;;
81934;SDS011;71405;47.674;-2.050;2023-07-30T09:10:03;8.02;;;3.72;;
81934;SDS011;71405;47.674;-2.050;2023-07-30T09:12:32;8.00;;;3.67;;
81934;SDS011;71405;47.674;-2.050;2023-07-30T09:14:58;8.35;;;4.00;;
81934;SDS011;71405;47.674;-2.050;2023-07-30T09:17:25;7.47;;;3.72;;
81934;SDS011;71405;47.674;-2.050;2023-07-30T09:19:51;13.27;;;10.45;;
81934;SDS011;71405;47.674;-2.050;2023-07-30T09:22:27;11.73;;;8.02;;
81934;SDS011;71405;47.674;-2.050;2023-07-30T09:24:55;14.48;;;12.90;;
81934;SDS011;71405;47.674;-2.050;2023-07-30T09:27:22;10.43;;;7.88;;
81934;SDS011;71405;47.674;-2.050;2023-07-30T09:29:54;9.40;;;5.50;;
81934;SDS011;71405;47.674;-2.050;2023-07-30T09:32:27;7.93;;;4.65;;
81934;SDS011;71405;47.674;-2.050;2023-07-30T09:34:54;10.15;;;4.53;;
81934;SDS011;71405;47.674;-2.050;2023-07-30T09:37:21;7.63;;;3.60;;
81934;SDS011;71405;47.674;-2.050;2023-07-30T09:39:50;8.63;;;3.88;;
81934;SDS011;71405;47.674;-2.050;2023-07-30T09:42:15;8.65;;;4.07;;
81934;SDS011;71405;47.674;-2.050;2023-07-30T09:44:41;8.40;;;3.50;;
81934;SDS011;71405;47.674;-2.050;2023-07-30T09:47:10;7.53;;;3.30;;
81934;SDS011;71405;47.674;-2.050;2023-07-30T09:49:36;8.13;;;3.30;;
81934;SDS011;71405;47.674;-2.050;2023-07-30T09:52:04;8.82;;;3.75;;
81934;SDS011;71405;47.674;-2.050;2023-07-30T09:54:31;8.88;;;3.53;;
81934;SDS011;71405;47.674;-2.050;2023-07-30T09:56:57;10.15;;;3.33;;
81934;SDS011;71405;47.674;-2.050;2023-07-30T09:59:23;8.48;;;3.38;;
81934;SDS011;71405;47.674;-2.050;2023-07-30T10:01:49;7.47;;;3.13;;
81934;SDS011;71405;47.674;-2.050;2023-07-30T10:04:19;10.93;;;3.83;;
81934;SDS011;71405;47.674;-2.050;2023-07-30T10:06:56;18.15;;;16.25;;
81934;SDS011;71405;47.674;-2.050;2023-07-30T10:09:28;11.47;;;8.10;;
81934;SDS011;71405;47.674;-2.050;2023-07-30T10:11:58;10.88;;;6.88;;
81934;SDS011;71405;47.674;-2.050;2023-07-30T10:14:26;10.07;;;5.18;;
81934;SDS011;71405;47.674;-2.050;2023-07-30T10:16:54;8.90;;;4.72;;
81934;SDS011;71405;47.674;-2.050;2023-07-30T10:19:25;9.93;;;5.03;;
81934;SDS011;71405;47.674;-2.050;2023-07-30T10:22:01;10.43;;;4.22;;
81934;SDS011;71405;47.674;-2.050;2023-07-30T10:27:23;8.50;;;3.45;;
81934;SDS011;71405;47.674;-2.050;2023-07-30T10:29:50;9.38;;;3.95;;
81934;SDS011;71405;47.674;-2.050;2023-07-30T10:38:22;9.82;;;3.33;;
81934;SDS011;71405;47.674;-2.050;2023-07-30T10:43:30;8.23;;;3.72;;
81934;SDS011;71405;47.674;-2.050;2023-07-30T10:46:01;7.93;;;3.65;;
81934;SDS011;71405;47.674;-2.050;2023-07-30T10:48:30;8.68;;;3.50;;
81934;SDS011;71405;47.674;-2.050;2023-07-30T10:51:00;9.45;;;3.33;;
81934;SDS011;71405;47.674;-2.050;2023-07-30T10:53:27;7.07;;;3.03;;
81934;SDS011;71405;47.674;-2.050;2023-07-30T10:55:53;7.28;;;3.15;;
81934;SDS011;71405;47.674;-2.050;2023-07-30T10:58:20;9.15;;;3.30;;
81934;SDS011;71405;47.674;-2.050;2023-07-30T11:00:48;8.75;;;3.40;;
81934;SDS011;71405;47.674;-2.050;2023-07-30T11:03:14;9.85;;;3.10;;
81934;SDS011;71405;47.674;-2.050;2023-07-30T11:05:40;6.80;;;2.83;;
81934;SDS011;71405;47.674;-2.050;2023-07-30T11:08:05;6.85;;;3.05;;
81934;SDS011;71405;47.674;-2.050;2023-07-30T11:10:31;9.02;;;3.00;;
81934;SDS011;71405;47.674;-2.050;2023-07-30T11:12:57;10.27;;;3.42;;
81934;SDS011;71405;47.674;-2.050;2023-07-30T11:15:22;8.38;;;3.13;;
81934;SDS011;71405;47.674;-2.050;2023-07-30T11:17:51;8.45;;;2.97;;
81934;SDS011;71405;47.674;-2.050;2023-07-30T11:20:24;8.18;;;3.20;;
81934;SDS011;71405;47.674;-2.050;2023-07-30T11:22:53;10.05;;;3.50;;
81934;SDS011;71405;47.674;-2.050;2023-07-30T11:25:19;8.90;;;3.30;;
81934;SDS011;71405;47.674;-2.050;2023-07-30T11:27:46;7.22;;;2.65;;
81934;SDS011;71405;47.674;-2.050;2023-07-30T11:30:12;8.27;;;3.45;;
81934;SDS011;71405;47.674;-2.050;2023-07-30T11:32:38;8.15;;;3.20;;
81934;SDS011;71405;47.674;-2.050;2023-07-30T11:35:04;9.75;;;3.88;;
81934;SDS011;71405;47.674;-2.050;2023-07-30T11:37:31;11.00;;;3.28;;
81934;SDS011;71405;47.674;-2.050;2023-07-30T11:39:57;8.90;;;3.53;;
81934;SDS011;71405;47.674;-2.050;2023-07-30T11:42:23;9.43;;;3.60;;
81934;SDS011;71405;47.674;-2.050;2023-07-30T11:44:49;12.52;;;3.55;;
81934;SDS011;71405;47.674;-2.050;2023-07-30T11:47:23;8.52;;;3.30;;
81934;SDS011;71405;47.674;-2.050;2023-07-30T11:49:55;9.73;;;3.38;;
81934;SDS011;71405;47.674;-2.050;2023-07-30T11:52:22;9.13;;;3.75;;
81934;SDS011;71405;47.674;-2.050;2023-07-30T11:54:47;9.35;;;3.50;;
81934;SDS011;71405;47.674;-2.050;2023-07-30T11:57:13;9.48;;;4.00;;
81934;SDS011;71405;47.674;-2.050;2023-07-30T11:59:39;10.20;;;3.35;;
81934;SDS011;71405;47.674;-2.050;2023-07-30T12:02:07;10.70;;;3.92;;
81934;SDS011;71405;47.674;-2.050;2023-07-30T12:04:44;10.13;;;4.00;;
81934;SDS011;71405;47.674;-2.050;2023-07-30T12:07:10;17.65;;;12.82;;
81934;SDS011;71405;47.674;-2.050;2023-07-30T12:09:35;12.38;;;8.20;;
81934;SDS011;71405;47.674;-2.050;2023-07-30T12:12:03;11.48;;;5.30;;
81934;SDS011;71405;47.674;-2.050;2023-07-30T12:14:44;10.10;;;4.13;;
81934;SDS011;71405;47.674;-2.050;2023-07-30T12:17:15;11.23;;;4.32;;
81934;SDS011;71405;47.674;-2.050;2023-07-30T12:19:41;11.88;;;3.92;;
81934;SDS011;71405;47.674;-2.050;2023-07-30T12:22:07;10.13;;;4.05;;
81934;SDS011;71405;47.674;-2.050;2023-07-30T12:24:33;10.52;;;4.05;;
81934;SDS011;71405;47.674;-2.050;2023-07-30T12:26:58;8.63;;;3.45;;
81934;SDS011;71405;47.674;-2.050;2023-07-30T12:29:25;8.52;;;3.85;;
81934;SDS011;71405;47.674;-2.050;2023-07-30T12:31:51;10.55;;;3.60;;
81934;SDS011;71405;47.674;-2.050;2023-07-30T12:34:18;9.77;;;3.53;;
81934;SDS011;71405;47.674;-2.050;2023-07-30T12:36:45;9.70;;;3.25;;
81934;SDS011;71405;47.674;-2.050;2023-07-30T12:39:11;9.35;;;3.55;;
81934;SDS011;71405;47.674;-2.050;2023-07-30T12:41:37;9.27;;;3.75;;
81934;SDS011;71405;47.674;-2.050;2023-07-30T12:44:02;9.55;;;4.13;;
81934;SDS011;71405;47.674;-2.050;2023-07-30T12:46:29;11.52;;;3.50;;
81934;SDS011;71405;47.674;-2.050;2023-07-30T12:48:57;8.57;;;3.75;;
81934;SDS011;71405;47.674;-2.050;2023-07-30T12:51:27;10.82;;;3.80;;
81934;SDS011;71405;47.674;-2.050;2023-07-30T12:53:53;12.88;;;3.90;;
81934;SDS011;71405;47.674;-2.050;2023-07-30T12:56:18;9.52;;;3.50;;
81934;SDS011;71405;47.674;-2.050;2023-07-30T12:58:44;11.02;;;3.28;;
81934;SDS011;71405;47.674;-2.050;2023-07-30T13:01:09;9.90;;;3.75;;
81934;SDS011;71405;47.674;-2.050;2023-07-30T13:03:35;12.25;;;4.18;;
81934;SDS011;71405;47.674;-2.050;2023-07-30T13:06:01;9.77;;;3.78;;
81934;SDS011;71405;47.674;-2.050;2023-07-30T13:08:27;12.82;;;4.00;;
81934;SDS011;71405;47.674;-2.050;2023-07-30T13:10:53;29.33;;;23.05;;
81934;SDS011;71405;47.674;-2.050;2023-07-30T13:13:18;16.92;;;10.77;;
81934;SDS011;71405;47.674;-2.050;2023-07-30T13:15:44;12.85;;;6.53;;
81934;SDS011;71405;47.674;-2.050;2023-07-30T13:18:10;11.70;;;5.28;;
81934;SDS011;71405;47.674;-2.050;2023-07-30T13:20:35;10.27;;;4.35;;
81934;SDS011;71405;47.674;-2.050;2023-07-30T13:23:01;9.60;;;3.97;;
81934;SDS011;71405;47.674;-2.050;2023-07-30T13:25:27;10.50;;;3.75;;
81934;SDS011;71405;47.674;-2.050;2023-07-30T13:27:53;12.13;;;4.18;;
81934;SDS011;71405;47.674;-2.050;2023-07-30T13:30:19;11.15;;;3.38;;
81934;SDS011;71405;47.674;-2.050;2023-07-30T13:32:45;10.80;;;3.80;;
81934;SDS011;71405;47.674;-2.050;2023-07-30T13:35:10;11.20;;;3.95;;
81934;SDS011;71405;47.674;-2.050;2023-07-30T13:37:36;9.43;;;3.60;;
81934;SDS011;71405;47.674;-2.050;2023-07-30T13:40:02;12.18;;;4.03;;
81934;SDS011;71405;47.674;-2.050;2023-07-30T13:42:28;11.05;;;3.63;;
81934;SDS011;71405;47.674;-2.050;2023-07-30T13:44:54;12.13;;;3.60;;
81934;SDS011;71405;47.674;-2.050;2023-07-30T13:47:19;9.95;;;3.95;;
81934;SDS011;71405;47.674;-2.050;2023-07-30T13:49:45;9.88;;;3.80;;
81934;SDS011;71405;47.674;-2.050;2023-07-30T13:52:12;10.65;;;3.80;;
81934;SDS011;71405;47.674;-2.050;2023-07-30T13:54:38;9.48;;;3.38;;
81934;SDS011;71405;47.674;-2.050;2023-07-30T13:57:04;9.48;;;3.67;;
81934;SDS011;71405;47.674;-2.050;2023-07-30T13:59:30;11.18;;;4.28;;
81934;SDS011;71405;47.674;-2.050;2023-07-30T14:01:56;10.95;;;3.72;;
81934;SDS011;71405;47.674;-2.050;2023-07-30T14:04:22;11.63;;;4.20;;
81934;SDS011;71405;47.674;-2.050;2023-07-30T14:06:47;9.48;;;3.30;;
81934;SDS011;71405;47.674;-2.050;2023-07-30T14:09:13;11.13;;;3.83;;
81934;SDS011;71405;47.674;-2.050;2023-07-30T14:11:39;12.90;;;3.92;;
81934;SDS011;71405;47.674;-2.050;2023-07-30T14:14:10;21.52;;;13.70;;
81934;SDS011;71405;47.674;-2.050;2023-07-30T14:16:35;19.95;;;14.18;;
81934;SDS011;71405;47.674;-2.050;2023-07-30T14:19:01;16.38;;;10.32;;
81934;SDS011;71405;47.674;-2.050;2023-07-30T14:21:27;13.27;;;6.20;;
81934;SDS011;71405;47.674;-2.050;2023-07-30T14:23:53;9.93;;;4.68;;
81934;SDS011;71405;47.674;-2.050;2023-07-30T14:26:18;13.45;;;4.93;;
81934;SDS011;71405;47.674;-2.050;2023-07-30T14:28:44;10.55;;;4.30;;
81934;SDS011;71405;47.674;-2.050;2023-07-30T14:31:10;11.55;;;4.15;;
81934;SDS011;71405;47.674;-2.050;2023-07-30T14:33:36;11.63;;;4.30;;
81934;SDS011;71405;47.674;-2.050;2023-07-30T14:36:01;11.90;;;3.55;;
81934;SDS011;71405;47.674;-2.050;2023-07-30T14:38:28;10.90;;;3.30;;